Time;durP1;ratioP1;P1;durP2;ratioP2;P2;SDS_P1;SDS_P2;PMS_P1;PMS_P2;Temp;Humidity;BMP_temperature;BMP_pressure;BME280_temperature;BME280_humidity;BME280_pressure;Samples;Min_cycle;Max_cycle;Signal;HPM_P1;HPM_P2
2022/12/04 00:01:11;;;;;;;16.23;9.00;;;4.80;99.90;;;;;;4943256;29;20228;-85
2022/12/04 00:03:38;;;;;;;18.40;10.80;;;4.90;99.90;;;;;;4921530;29;20180;-85
2022/12/04 00:06:06;;;;;;;21.03;10.83;;;4.90;99.90;;;;;;4938689;29;20179;-83
2022/12/04 00:08:32;;;;;;;18.10;9.97;;;5.00;99.90;;;;;;4941488;29;20177;-83
2022/12/04 00:10:58;;;;;;;18.07;9.80;;;4.90;99.90;;;;;;4939844;29;20541;-84
2022/12/04 00:13:24;;;;;;;16.10;9.70;;;4.90;99.90;;;;;;4939557;29;20183;-84
2022/12/04 00:15:51;;;;;;;17.93;9.90;;;4.80;99.90;;;;;;4944952;29;20226;-84
2022/12/04 00:18:17;;;;;;;17.70;10.73;;;4.80;99.90;;;;;;4939908;29;20180;-85
2022/12/04 00:20:42;;;;;;;19.60;10.37;;;4.80;99.90;;;;;;4940051;29;20175;-85
2022/12/04 00:23:08;;;;;;;18.20;9.90;;;4.80;99.90;;;;;;4943956;29;20230;-82
2022/12/04 00:25:34;;;;;;;17.30;9.60;;;4.80;99.90;;;;;;4948630;29;20607;-81
2022/12/04 00:28:00;;;;;;;17.97;10.37;;;4.80;99.90;;;;;;4948305;29;20177;-84
2022/12/04 00:30:26;;;;;;;18.37;10.00;;;4.80;99.90;;;;;;4944610;29;20180;-85
2022/12/04 00:32:51;;;;;;;19.50;9.80;;;4.90;99.90;;;;;;4939853;29;20164;-86
2022/12/04 00:35:17;;;;;;;17.80;10.07;;;4.90;99.90;;;;;;4939423;29;20211;-83
2022/12/04 00:37:43;;;;;;;17.07;9.13;;;4.90;99.90;;;;;;4940788;29;20194;-81
2022/12/04 00:40:09;;;;;;;17.47;9.53;;;4.80;99.90;;;;;;4940856;29;20172;-84
2022/12/04 00:42:35;;;;;;;15.50;9.07;;;4.80;99.90;;;;;;4941719;29;20194;-84
2022/12/04 00:45:01;;;;;;;14.40;8.30;;;4.80;99.90;;;;;;4942871;29;20179;-84
2022/12/04 00:47:27;;;;;;;13.50;8.30;;;4.70;99.90;;;;;;4944796;29;20752;-82
2022/12/04 00:49:53;;;;;;;13.70;7.93;;;4.80;99.90;;;;;;4932708;29;20187;-85
2022/12/04 00:52:21;;;;;;;14.57;8.70;;;4.80;99.90;;;;;;4940937;29;20640;-84
2022/12/04 00:54:47;;;;;;;15.87;9.20;;;4.80;99.90;;;;;;4940196;29;20208;-85
2022/12/04 00:57:13;;;;;;;13.47;8.47;;;4.90;99.90;;;;;;4938416;29;20237;-84
2022/12/04 00:59:39;;;;;;;17.10;8.03;;;4.90;99.90;;;;;;4937991;29;20641;-85
2022/12/04 01:02:05;;;;;;;13.40;7.70;;;4.80;99.90;;;;;;4938037;29;20178;-85
2022/12/04 01:04:31;;;;;;;13.37;7.70;;;4.80;99.90;;;;;;4919712;29;20242;-83
2022/12/04 01:06:57;;;;;;;16.43;9.17;;;4.80;99.90;;;;;;4920876;29;20183;-86
2022/12/04 01:09:22;;;;;;;15.53;8.60;;;4.80;99.90;;;;;;4937987;29;20205;-85
2022/12/04 01:11:48;;;;;;;17.60;8.30;;;4.70;99.90;;;;;;4937421;29;20172;-82
2022/12/04 01:14:14;;;;;;;12.47;8.33;;;4.70;99.90;;;;;;4937601;29;20208;-84
2022/12/04 01:16:40;;;;;;;15.13;8.43;;;4.70;99.90;;;;;;4937288;29;20688;-83
2022/12/04 01:19:10;;;;;;;14.63;7.90;;;4.70;99.90;;;;;;4937995;29;20182;-86
2022/12/04 01:21:36;;;;;;;14.20;8.37;;;4.70;99.90;;;;;;4937165;29;20182;-85
2022/12/04 01:24:03;;;;;;;13.23;7.83;;;4.70;99.90;;;;;;4937082;29;20195;-84
2022/12/04 01:26:29;;;;;;;16.37;9.07;;;4.70;99.90;;;;;;4937362;29;20188;-86
2022/12/04 01:28:55;;;;;;;15.33;9.10;;;4.70;99.90;;;;;;4937429;29;20183;-84
2022/12/04 01:31:21;;;;;;;15.40;8.77;;;4.70;99.90;;;;;;4920136;29;20633;-85
2022/12/04 01:33:49;;;;;;;14.90;8.60;;;4.60;99.90;;;;;;4937709;29;20178;-82
2022/12/04 01:36:17;;;;;;;12.47;8.10;;;4.60;99.90;;;;;;4920375;29;20192;-84
2022/12/04 01:38:44;;;;;;;16.20;9.43;;;4.50;99.90;;;;;;4937207;29;20250;-84
2022/12/04 01:41:11;;;;;;;16.03;8.93;;;4.60;99.90;;;;;;4943037;29;20175;-83
2022/12/04 01:43:38;;;;;;;14.43;8.83;;;4.60;99.90;;;;;;4924675;29;20544;-84
2022/12/04 01:46:06;;;;;;;15.00;8.83;;;4.60;99.90;;;;;;4936765;29;20580;-86
2022/12/04 01:48:36;;;;;;;15.67;8.17;;;4.60;99.90;;;;;;4920397;29;20180;-86
2022/12/04 01:51:21;;;;;;;16.60;8.77;;;4.70;99.90;;;;;;4940216;29;20188;-83
2022/12/04 01:53:55;;;;;;;18.20;8.93;;;4.60;99.90;;;;;;4945229;29;20171;-86
2022/12/04 01:56:44;;;;;;;16.40;8.97;;;4.60;99.90;;;;;;4941392;29;20577;-81
2022/12/04 01:59:13;;;;;;;15.53;8.47;;;4.60;99.90;;;;;;4939097;29;20203;-84
2022/12/04 02:01:55;;;;;;;14.77;8.40;;;4.60;99.90;;;;;;4898835;29;20611;-82
2022/12/04 02:04:22;;;;;;;16.90;8.97;;;4.70;99.90;;;;;;4899077;29;20252;-82
2022/12/04 02:06:47;;;;;;;17.17;8.50;;;4.60;99.90;;;;;;4898750;29;20177;-83
2022/12/04 02:09:14;;;;;;;14.37;8.37;;;4.70;99.90;;;;;;4899037;29;20237;-86
2022/12/04 02:11:49;;;;;;;13.93;8.60;;;4.70;99.90;;;;;;4898602;29;20184;-84
2022/12/04 02:14:38;;;;;;;13.87;8.30;;;4.80;99.90;;;;;;4898940;29;20220;-83
2022/12/04 02:17:07;;;;;;;16.63;9.23;;;4.80;99.90;;;;;;4902796;29;20265;-84
2022/12/04 02:20:03;;;;;;;15.77;8.93;;;4.80;99.90;;;;;;4902538;29;20669;-79
2022/12/04 02:23:01;;;;;;;14.67;8.80;;;4.80;99.90;;;;;;4835799;29;20545;-80
2022/12/04 02:25:36;;;;;;;16.53;8.97;;;4.80;99.90;;;;;;4902573;29;20166;-78
2022/12/04 02:28:46;;;;;;;14.50;9.37;;;4.80;99.90;;;;;;4903750;29;20176;-79
2022/12/04 02:31:18;;;;;;;12.27;7.97;;;4.70;99.90;;;;;;4895377;29;20267;-83
2022/12/04 02:33:55;;;;;;;13.13;8.10;;;4.70;99.90;;;;;;4920740;29;20276;-86
2022/12/04 02:36:24;;;;;;;13.47;8.20;;;4.70;99.90;;;;;;4908370;29;20223;-85
2022/12/04 02:38:57;;;;;;;16.70;8.07;;;4.60;99.90;;;;;;4913679;29;20192;-85
2022/12/04 02:41:58;;;;;;;12.73;8.10;;;4.50;99.90;;;;;;4902257;29;20169;-85
2022/12/04 02:44:33;;;;;;;16.40;8.60;;;4.50;99.90;;;;;;4902546;29;20176;-85
2022/12/04 02:47:03;;;;;;;13.60;8.10;;;4.60;99.90;;;;;;4901997;29;20169;-86
2022/12/04 02:49:42;;;;;;;12.83;7.87;;;4.60;99.90;;;;;;4902251;29;20274;-85
2022/12/04 02:52:14;;;;;;;9.23;7.23;;;4.60;99.90;;;;;;4901949;29;20530;-83
2022/12/04 02:54:45;;;;;;;10.57;8.03;;;4.70;99.90;;;;;;4902291;29;20313;-85
2022/12/04 02:57:17;;;;;;;12.07;8.37;;;4.80;99.90;;;;;;4902191;29;20169;-84
2022/12/04 02:59:45;;;;;;;13.67;8.30;;;4.80;99.90;;;;;;4905949;29;20166;-86
2022/12/04 03:02:24;;;;;;;13.33;8.13;;;4.80;99.90;;;;;;4940505;29;20172;-85
2022/12/04 03:04:53;;;;;;;11.00;7.73;;;4.70;99.90;;;;;;4924616;29;20180;-85
2022/12/04 03:07:29;;;;;;;12.67;7.83;;;4.70;99.90;;;;;;4940505;29;20172;-85
2022/12/04 03:10:00;;;;;;;12.57;7.83;;;4.80;99.90;;;;;;4947274;29;20236;-84
2022/12/04 03:12:38;;;;;;;13.77;7.90;;;4.80;99.90;;;;;;4946014;29;20163;-85
2022/12/04 03:15:18;;;;;;;13.37;8.33;;;4.80;99.90;;;;;;4939872;29;20667;-84
2022/12/04 03:17:54;;;;;;;12.40;7.80;;;4.80;99.90;;;;;;4940360;29;20164;-82
2022/12/04 03:20:21;;;;;;;13.97;8.50;;;4.80;99.90;;;;;;4950709;29;20171;-84
2022/12/04 03:22:54;;;;;;;13.17;7.97;;;4.80;99.90;;;;;;4940365;29;20171;-84
2022/12/04 03:25:31;;;;;;;12.97;8.13;;;4.70;99.90;;;;;;4939342;29;20220;-83
2022/12/04 03:28:02;;;;;;;13.97;8.23;;;4.70;99.90;;;;;;4938273;29;20172;-83
2022/12/04 03:30:38;;;;;;;12.83;8.50;;;4.80;99.90;;;;;;4922093;29;20408;-83
2022/12/04 03:33:15;;;;;;;12.80;8.17;;;4.80;99.90;;;;;;4943037;29;20163;-84
2022/12/04 03:35:45;;;;;;;14.83;9.07;;;4.80;99.90;;;;;;4939987;29;20719;-83
2022/12/04 03:38:34;;;;;;;12.87;7.77;;;4.80;99.90;;;;;;4939471;29;20612;-84
2022/12/04 03:41:05;;;;;;;14.43;8.03;;;4.80;99.90;;;;;;4939065;29;20197;-84
2022/12/04 03:43:33;;;;;;;13.03;8.40;;;4.90;99.90;;;;;;4938772;29;20177;-82
2022/12/04 03:46:10;;;;;;;13.07;7.83;;;4.80;99.90;;;;;;4921820;29;20277;-79
2022/12/04 03:48:46;;;;;;;13.97;7.70;;;4.90;99.90;;;;;;4939121;29;20175;-84
2022/12/04 03:51:20;;;;;;;14.20;8.53;;;4.80;99.90;;;;;;4938727;29;20167;-86
2022/12/04 03:53:53;;;;;;;13.10;7.90;;;4.80;99.90;;;;;;4939095;29;20155;-83
2022/12/04 03:56:30;;;;;;;13.37;8.13;;;4.80;99.90;;;;;;4938593;29;20667;-86
2022/12/04 03:59:02;;;;;;;13.37;7.73;;;4.80;99.90;;;;;;4938742;29;20219;-85
2022/12/04 04:01:37;;;;;;;13.67;8.70;;;4.80;99.90;;;;;;4938176;29;20579;-79
2022/12/04 04:04:06;;;;;;;15.70;7.67;;;4.80;99.90;;;;;;4938771;29;20628;-79
2022/12/04 04:06:39;;;;;;;11.83;7.77;;;4.80;99.90;;;;;;4940390;29;20169;-77
2022/12/04 04:09:11;;;;;;;8.67;6.87;;;4.80;99.90;;;;;;4939497;29;20165;-78
2022/12/04 04:12:04;;;;;;;10.37;7.43;;;4.80;99.90;;;;;;4939585;29;20227;-78
2022/12/04 04:26:17;;;;;;;13.60;8.87;;;4.90;99.90;;;;;;4949440;29;20183;-84
2022/12/04 04:28:44;;;;;;;15.03;7.80;;;4.80;99.90;;;;;;4926814;29;20291;-85
2022/12/04 04:31:29;;;;;;;15.80;8.80;;;4.80;99.90;;;;;;4938497;29;20628;-85
2022/12/04 04:34:11;;;;;;;13.97;8.70;;;4.80;99.90;;;;;;4938397;29;20167;-85
2022/12/04 04:36:45;;;;;;;11.63;8.10;;;4.80;99.90;;;;;;4947533;29;20181;-84
2022/12/04 04:39:35;;;;;;;14.63;8.70;;;4.90;99.90;;;;;;4941513;29;20165;-84
2022/12/04 04:42:27;;;;;;;15.23;9.37;;;4.90;99.90;;;;;;4926987;29;20199;-84
2022/12/04 04:45:07;;;;;;;13.07;8.27;;;4.90;99.90;;;;;;4925817;29;20192;-85
2022/12/04 04:47:47;;;;;;;14.93;8.03;;;4.90;99.90;;;;;;4948537;29;20199;-85
2022/12/04 04:50:15;;;;;;;12.53;8.57;;;4.90;99.90;;;;;;4938721;29;20617;-86
2022/12/04 04:52:45;;;;;;;14.20;8.47;;;4.90;99.90;;;;;;4920754;29;20719;-85
2022/12/04 04:55:12;;;;;;;14.37;9.03;;;4.90;99.90;;;;;;4938156;29;20210;-84
2022/12/04 04:57:38;;;;;;;13.17;7.87;;;5.00;99.90;;;;;;4937577;29;20172;-79
2022/12/04 05:00:10;;;;;;;13.97;8.47;;;5.00;99.90;;;;;;4912347;29;20296;-82
2022/12/04 05:02:37;;;;;;;11.80;8.13;;;5.00;99.90;;;;;;4899466;29;20182;-83
2022/12/04 05:05:03;;;;;;;15.10;9.20;;;5.00;99.90;;;;;;4899565;29;20268;-80
2022/12/04 05:07:29;;;;;;;10.83;8.23;;;5.00;99.90;;;;;;4899679;29;20718;-79
2022/12/04 05:09:55;;;;;;;13.43;8.60;;;4.90;99.90;;;;;;4899803;29;20204;-81
2022/12/04 05:12:21;;;;;;;13.00;8.77;;;4.90;99.90;;;;;;4899239;29;20215;-80
2022/12/04 05:14:47;;;;;;;14.63;8.77;;;4.90;99.90;;;;;;4899064;29;20352;-77
2022/12/04 05:17:13;;;;;;;15.10;8.77;;;4.80;99.90;;;;;;4897785;29;20278;-78
2022/12/04 05:19:55;;;;;;;19.17;8.90;;;4.80;99.90;;;;;;4899215;29;20618;-85
2022/12/04 05:22:32;;;;;;;14.03;8.93;;;4.80;99.90;;;;;;4899642;29;20192;-83
2022/12/04 05:24:59;;;;;;;16.07;8.50;;;4.80;99.90;;;;;;4898229;29;20189;-83
2022/12/04 05:27:26;;;;;;;12.80;8.10;;;4.80;99.90;;;;;;4899069;29;20173;-83
2022/12/04 05:29:54;;;;;;;13.83;8.63;;;4.80;99.90;;;;;;4899827;29;20609;-86
2022/12/04 05:32:21;;;;;;;13.93;8.53;;;4.80;99.90;;;;;;4898375;29;20534;-84
2022/12/04 05:34:50;;;;;;;14.67;9.07;;;4.80;99.90;;;;;;4903610;29;20224;-79
2022/12/04 05:37:17;;;;;;;13.47;8.50;;;4.80;99.90;;;;;;4897895;29;20185;-83
2022/12/04 05:39:43;;;;;;;16.00;8.97;;;4.80;99.90;;;;;;4899144;29;20185;-83
2022/12/04 05:42:09;;;;;;;12.10;8.63;;;4.80;99.90;;;;;;4898809;29;20186;-82
2022/12/04 05:44:35;;;;;;;13.87;8.00;;;4.80;99.90;;;;;;4898991;29;20175;-80
2022/12/04 05:47:01;;;;;;;13.97;9.17;;;4.80;99.90;;;;;;4899020;29;20175;-79
2022/12/04 05:49:32;;;;;;;13.57;8.40;;;4.80;99.90;;;;;;4898481;29;20215;-80
2022/12/04 05:51:57;;;;;;;15.37;9.13;;;4.80;99.90;;;;;;4898353;29;20177;-80
2022/12/04 05:54:24;;;;;;;12.97;8.50;;;4.80;99.90;;;;;;4899289;29;20257;-79
2022/12/04 05:56:50;;;;;;;14.03;8.60;;;4.80;99.90;;;;;;4899471;29;20561;-82
2022/12/04 05:59:16;;;;;;;15.37;8.97;;;4.80;99.90;;;;;;4898935;29;20173;-83
2022/12/04 06:01:43;;;;;;;15.43;8.60;;;4.80;99.90;;;;;;4935313;29;20228;-82
2022/12/04 06:04:09;;;;;;;12.63;7.80;;;4.80;99.90;;;;;;4948618;29;20178;-83
2022/12/04 06:06:37;;;;;;;10.67;7.47;;;4.70;99.90;;;;;;4950521;29;20172;-83
2022/12/04 06:09:06;;;;;;;14.17;8.03;;;4.70;99.90;;;;;;4950134;29;20190;-84
2022/12/04 06:11:34;;;;;;;18.10;8.53;;;4.70;99.90;;;;;;4924647;29;20267;-83
2022/12/04 06:14:03;;;;;;;11.90;7.30;;;4.70;99.90;;;;;;4942839;29;20179;-85
2022/12/04 06:16:31;;;;;;;12.90;8.17;;;4.80;99.90;;;;;;4949530;29;20417;-85
2022/12/04 06:19:05;;;;;;;11.40;8.33;;;4.80;99.90;;;;;;4937152;29;20191;-85
2022/12/04 06:21:33;;;;;;;13.63;8.07;;;4.80;99.90;;;;;;4936780;29;20176;-83
2022/12/04 06:23:59;;;;;;;17.17;11.00;;;4.80;99.90;;;;;;4936706;29;20654;-85
2022/12/04 06:26:26;;;;;;;12.33;8.73;;;4.80;99.90;;;;;;4936828;29;20176;-84
2022/12/04 06:28:53;;;;;;;12.87;8.53;;;4.80;99.90;;;;;;4936617;29;20203;-86
2022/12/04 06:31:19;;;;;;;12.57;8.20;;;4.90;99.90;;;;;;4919643;29;20258;-85
2022/12/04 06:33:45;;;;;;;11.03;7.17;;;4.80;99.90;;;;;;4919221;29;20200;-84
2022/12/04 06:36:14;;;;;;;10.93;8.13;;;4.90;99.90;;;;;;4936529;29;20600;-83
2022/12/04 06:38:41;;;;;;;12.33;7.47;;;4.80;99.90;;;;;;4919397;29;20271;-81
2022/12/04 06:41:10;;;;;;;13.00;8.13;;;4.80;99.90;;;;;;4919577;29;20674;-84
2022/12/04 06:43:36;;;;;;;10.80;7.30;;;4.80;99.90;;;;;;4937342;29;20186;-85
2022/12/04 06:46:08;;;;;;;11.27;8.00;;;4.90;99.90;;;;;;4941215;29;20289;-85
2022/12/04 06:48:34;;;;;;;12.73;8.07;;;4.90;99.90;;;;;;4943124;29;20160;-84
2022/12/04 06:51:08;;;;;;;10.93;7.90;;;4.90;99.90;;;;;;4920645;29;20176;-82
2022/12/04 06:53:34;;;;;;;10.47;8.20;;;4.90;99.90;;;;;;4919693;29;20180;-85
2022/12/04 06:56:03;;;;;;;11.10;7.70;;;4.90;99.90;;;;;;4936188;29;20203;-83
2022/12/04 06:58:29;;;;;;;9.87;7.57;;;4.90;99.90;;;;;;4936641;29;20175;-84
2022/12/04 07:00:56;;;;;;;9.70;7.17;;;5.00;99.90;;;;;;4936153;29;20223;-82
2022/12/04 07:03:22;;;;;;;10.00;7.70;;;4.90;99.90;;;;;;4939630;29;20259;-82
2022/12/04 07:05:49;;;;;;;12.07;7.90;;;4.90;99.90;;;;;;4922312;29;20198;-83
2022/12/04 07:08:15;;;;;;;14.50;8.63;;;4.90;99.90;;;;;;4922382;29;20185;-86
2022/12/04 07:10:41;;;;;;;13.13;8.23;;;4.90;99.90;;;;;;4939295;29;20182;-84
2022/12/04 07:13:08;;;;;;;15.00;7.90;;;4.80;99.90;;;;;;4939694;29;20260;-82
2022/12/04 07:15:36;;;;;;;14.53;8.63;;;4.90;99.90;;;;;;4939537;29;20293;-83
2022/12/04 07:18:03;;;;;;;12.63;8.87;;;4.80;99.90;;;;;;4922057;29;20180;-86
2022/12/04 07:20:29;;;;;;;13.87;8.67;;;4.80;99.90;;;;;;4939182;29;20184;-83
2022/12/04 07:22:54;;;;;;;15.03;9.70;;;4.70;99.90;;;;;;4922260;29;20240;-85
2022/12/04 07:25:21;;;;;;;12.73;9.47;;;4.80;99.90;;;;;;4939572;29;20629;-85
2022/12/04 07:27:46;;;;;;;16.77;9.40;;;4.80;99.90;;;;;;4938993;29;20634;-83
2022/12/04 07:30:13;;;;;;;14.27;9.33;;;4.90;99.90;;;;;;4941003;29;20183;-80
2022/12/04 07:32:39;;;;;;;14.67;9.33;;;5.00;99.90;;;;;;4926319;29;20266;-81
2022/12/04 07:35:05;;;;;;;15.80;10.27;;;5.00;99.90;;;;;;4938993;29;20270;-84
2022/12/04 07:37:34;;;;;;;14.20;9.37;;;5.00;99.90;;;;;;4939231;29;20183;-81
2022/12/04 07:40:00;;;;;;;15.80;9.87;;;5.00;99.90;;;;;;4939024;29;20184;-81
2022/12/04 07:42:27;;;;;;;15.53;9.70;;;5.00;99.90;;;;;;4940075;29;20176;-78
2022/12/04 07:44:53;;;;;;;15.30;9.40;;;4.90;99.90;;;;;;4921421;29;20575;-80
2022/12/04 07:47:19;;;;;;;14.17;9.53;;;4.90;99.90;;;;;;4938968;29;20175;-81
2022/12/04 07:49:45;;;;;;;12.40;8.80;;;4.90;99.90;;;;;;4939242;29;20180;-83
2022/12/04 07:52:10;;;;;;;13.67;8.70;;;4.80;99.90;;;;;;4946357;29;20179;-78
2022/12/04 07:54:36;;;;;;;16.27;9.43;;;4.90;99.90;;;;;;4946002;29;20204;-79
2022/12/04 07:57:02;;;;;;;15.07;9.80;;;4.90;99.90;;;;;;4939973;29;20179;-79
2022/12/04 07:59:28;;;;;;;13.10;8.50;;;4.90;99.90;;;;;;4941374;29;20552;-83
2022/12/04 08:01:54;;;;;;;13.63;8.47;;;4.90;99.90;;;;;;4955899;29;20232;-83
2022/12/04 08:04:19;;;;;;;14.07;8.93;;;5.00;99.90;;;;;;4936501;29;20188;-83
2022/12/04 08:06:45;;;;;;;11.27;7.97;;;4.90;99.90;;;;;;4940644;29;20577;-84
2022/12/04 08:09:11;;;;;;;13.37;8.73;;;4.90;99.90;;;;;;4939227;29;20192;-84
2022/12/04 08:11:37;;;;;;;16.43;9.30;;;4.80;99.90;;;;;;4938848;29;20179;-82
2022/12/04 08:14:07;;;;;;;12.27;7.97;;;4.90;99.90;;;;;;4938596;29;20176;-82
2022/12/04 08:16:33;;;;;;;14.47;9.20;;;5.00;99.90;;;;;;4921137;29;20200;-85
2022/12/04 08:18:59;;;;;;;10.90;8.17;;;4.90;99.90;;;;;;4938294;29;20200;-85
2022/12/04 08:21:30;;;;;;;11.60;8.70;;;4.90;99.90;;;;;;4941437;29;20278;-82
2022/12/04 08:23:58;;;;;;;14.57;9.63;;;4.90;99.90;;;;;;4939934;29;20200;-84
2022/12/04 08:26:27;;;;;;;13.73;8.80;;;4.90;99.90;;;;;;4939307;29;20177;-83
2022/12/04 08:28:54;;;;;;;13.33;8.90;;;5.00;99.90;;;;;;4938969;29;20172;-83
2022/12/04 08:31:23;;;;;;;10.60;8.73;;;5.00;99.90;;;;;;4938766;29;20540;-83
2022/12/04 08:33:51;;;;;;;15.37;9.20;;;5.00;99.90;;;;;;4938651;29;20177;-82
2022/12/04 08:36:19;;;;;;;16.13;10.10;;;5.00;99.90;;;;;;4938767;29;20203;-83
2022/12/04 08:38:46;;;;;;;14.37;9.53;;;5.00;99.90;;;;;;4938848;29;20167;-82
2022/12/04 08:41:14;;;;;;;18.00;10.20;;;5.00;99.90;;;;;;4938487;29;20203;-82
2022/12/04 08:43:40;;;;;;;15.33;10.33;;;4.90;99.90;;;;;;4938754;29;20249;-82
2022/12/04 08:46:12;;;;;;;15.77;10.07;;;5.00;99.90;;;;;;4938423;29;20189;-84
2022/12/04 08:48:38;;;;;;;16.63;10.77;;;4.90;99.90;;;;;;4938712;29;20167;-83
2022/12/04 08:51:07;;;;;;;18.00;10.10;;;5.00;99.90;;;;;;4938466;29;20209;-86
2022/12/04 08:53:36;;;;;;;17.17;10.67;;;4.90;99.90;;;;;;4921926;29;20721;-86
2022/12/04 08:56:03;;;;;;;16.33;9.80;;;5.00;99.90;;;;;;4940033;29;20211;-83
2022/12/04 08:58:29;;;;;;;15.77;9.97;;;5.00;99.90;;;;;;4928997;29;20195;-86
2022/12/04 09:00:56;;;;;;;14.60;9.73;;;5.10;99.90;;;;;;4938856;29;20293;-84
2022/12/04 09:03:22;;;;;;;15.40;10.37;;;5.10;99.90;;;;;;4937349;29;20255;-84
2022/12/04 09:05:48;;;;;;;16.40;10.63;;;5.10;99.90;;;;;;4938067;29;20180;-87
2022/12/04 09:08:16;;;;;;;17.40;11.33;;;5.00;99.90;;;;;;4943355;29;20259;-83
2022/12/04 09:10:43;;;;;;;15.53;10.47;;;5.10;99.90;;;;;;4942153;29;20188;-83
2022/12/04 09:13:10;;;;;;;14.80;9.87;;;5.20;99.90;;;;;;4940152;29;20215;-81
2022/12/04 09:15:42;;;;;;;15.23;9.43;;;5.30;99.90;;;;;;4937794;29;20672;-83
2022/12/04 09:18:08;;;;;;;13.23;9.67;;;5.40;99.90;;;;;;4938499;29;20219;-84
2022/12/04 09:20:35;;;;;;;15.13;9.67;;;5.20;99.90;;;;;;4937889;29;20175;-79
2022/12/04 09:23:03;;;;;;;16.53;9.77;;;5.30;99.90;;;;;;4938120;29;20179;-81
2022/12/04 09:25:30;;;;;;;15.97;10.27;;;5.40;99.90;;;;;;4938611;29;20696;-81
2022/12/04 09:27:58;;;;;;;17.60;9.87;;;5.50;99.90;;;;;;4937332;29;20252;-81
2022/12/04 09:30:25;;;;;;;16.53;10.67;;;5.60;99.90;;;;;;4920488;29;20187;-79
2022/12/04 09:32:51;;;;;;;18.30;12.17;;;5.60;99.90;;;;;;4937120;29;20227;-78
2022/12/04 09:35:17;;;;;;;18.17;10.83;;;5.60;99.90;;;;;;4919822;29;20223;-78
2022/12/04 09:37:46;;;;;;;20.33;13.53;;;5.70;99.90;;;;;;4937324;29;20271;-80
2022/12/04 09:40:43;;;;;;;20.03;11.37;;;5.80;99.90;;;;;;4938003;29;20597;-84
2022/12/04 09:43:38;;;;;;;16.17;10.03;;;5.80;99.90;;;;;;4942018;29;20188;-85
2022/12/04 09:46:13;;;;;;;18.33;11.17;;;5.90;99.90;;;;;;4942849;29;20191;-81
2022/12/04 09:48:43;;;;;;;18.27;11.23;;;5.90;99.90;;;;;;4943535;29;20171;-84
2022/12/04 09:51:17;;;;;;;15.00;10.37;;;5.90;99.90;;;;;;4945561;29;20196;-83
2022/12/04 09:54:01;;;;;;;19.60;11.63;;;5.90;99.90;;;;;;4952999;29;20168;-85
2022/12/04 09:56:30;;;;;;;19.47;11.57;;;6.00;99.90;;;;;;4944694;29;20210;-84
2022/12/04 09:59:21;;;;;;;20.60;11.77;;;6.00;99.90;;;;;;4941609;29;20226;-83
2022/12/04 10:01:57;;;;;;;19.63;11.93;;;6.00;99.90;;;;;;4901388;29;20233;-85
2022/12/04 10:04:24;;;;;;;19.27;11.43;;;6.00;99.90;;;;;;4903504;29;20602;-85
2022/12/04 10:07:05;;;;;;;20.33;11.67;;;5.90;99.90;;;;;;4904119;29;20193;-83
2022/12/04 10:09:47;;;;;;;16.27;11.00;;;5.90;99.90;;;;;;4902569;29;20493;-85
2022/12/04 10:12:33;;;;;;;20.07;11.70;;;5.90;99.90;;;;;;4902142;29;20507;-84
2022/12/04 10:15:27;;;;;;;17.73;11.23;;;5.90;99.90;;;;;;4902804;29;20245;-83
2022/12/04 10:18:51;;;;;;;19.33;12.03;;;5.90;99.90;;;;;;4902184;29;20224;-84
2022/12/04 10:21:59;;;;;;;22.13;11.47;;;6.00;99.90;;;;;;4844899;29;20195;-84
2022/12/04 10:24:39;;;;;;;19.20;11.83;;;6.10;99.90;;;;;;4901295;29;20654;-85
2022/12/04 10:27:30;;;;;;;19.97;11.80;;;6.20;99.90;;;;;;4902922;29;20640;-85
2022/12/04 10:30:15;;;;;;;17.57;11.57;;;6.20;99.90;;;;;;4900465;29;20639;-82
2022/12/04 10:32:45;;;;;;;22.60;12.80;;;6.20;99.90;;;;;;4897997;29;20306;-81
2022/12/04 10:35:20;;;;;;;19.40;11.67;;;6.10;99.90;;;;;;4902118;29;20217;-83
2022/12/04 10:37:55;;;;;;;22.13;12.53;;;6.10;99.90;;;;;;4905443;29;20197;-85
2022/12/04 10:40:27;;;;;;;22.40;11.77;;;6.20;99.90;;;;;;4903029;29;20181;-83
2022/12/04 10:43:10;;;;;;;21.27;11.93;;;6.10;99.90;;;;;;4903040;29;20208;-84
2022/12/04 10:45:36;;;;;;;18.87;11.60;;;6.20;99.90;;;;;;4902158;29;20176;-83
2022/12/04 10:48:03;;;;;;;21.50;12.00;;;6.10;99.90;;;;;;4902025;29;20282;-85
2022/12/04 10:50:29;;;;;;;19.30;12.27;;;6.10;99.90;;;;;;4902001;29;20234;-81
2022/12/04 10:52:55;;;;;;;21.67;13.00;;;6.20;99.90;;;;;;4901783;29;20642;-81
2022/12/04 10:55:33;;;;;;;21.40;11.97;;;6.20;99.90;;;;;;4902809;29;20221;-83
2022/12/04 10:57:59;;;;;;;21.80;12.60;;;6.30;99.90;;;;;;4901733;29;20654;-79
2022/12/04 11:00:32;;;;;;;22.27;12.37;;;6.30;99.90;;;;;;4916589;29;20633;-80
2022/12/04 11:03:07;;;;;;;21.60;12.80;;;6.30;99.90;;;;;;4940101;29;20170;-80
2022/12/04 11:05:54;;;;;;;20.43;12.57;;;6.30;99.90;;;;;;4939657;29;20187;-82
2022/12/04 11:08:32;;;;;;;18.80;12.17;;;6.20;99.90;;;;;;4939808;29;20215;-84
2022/12/04 11:11:06;;;;;;;19.33;12.20;;;6.20;99.90;;;;;;4942560;29;20167;-83
2022/12/04 11:13:32;;;;;;;19.73;11.90;;;6.20;99.90;;;;;;4940233;29;20200;-79
2022/12/04 11:15:59;;;;;;;17.43;11.77;;;6.20;99.90;;;;;;4940002;29;20259;-85
2022/12/04 11:18:33;;;;;;;21.93;12.33;;;6.20;99.90;;;;;;4923297;29;20186;-84
2022/12/04 11:21:13;;;;;;;20.77;12.23;;;6.20;99.90;;;;;;4939297;29;20637;-85
2022/12/04 11:23:49;;;;;;;22.20;12.40;;;6.20;99.90;;;;;;4930265;29;20181;-84
2022/12/04 11:26:31;;;;;;;22.00;12.77;;;6.20;99.90;;;;;;4943557;29;20501;-84
2022/12/04 11:29:00;;;;;;;21.50;12.90;;;6.20;99.90;;;;;;4940819;29;20189;-86
2022/12/04 11:31:28;;;;;;;23.90;12.67;;;6.10;99.90;;;;;;4943026;29;20171;-83
2022/12/04 11:34:06;;;;;;;19.07;12.33;;;6.10;99.90;;;;;;4927536;29;20186;-85
2022/12/04 11:36:42;;;;;;;23.33;12.87;;;6.10;99.90;;;;;;4945308;29;20223;-84
2022/12/04 11:39:19;;;;;;;19.00;12.47;;;6.20;99.90;;;;;;4927654;29;20327;-85
2022/12/04 11:41:46;;;;;;;18.13;12.03;;;6.20;99.90;;;;;;4959966;29;20162;-86
2022/12/04 11:44:23;;;;;;;20.60;12.40;;;6.20;99.90;;;;;;4949478;29;20182;-85
2022/12/04 11:47:04;;;;;;;18.67;11.47;;;6.10;99.90;;;;;;4940860;29;20176;-85
2022/12/04 11:49:32;;;;;;;20.83;11.83;;;6.10;99.90;;;;;;4938187;29;20173;-85
2022/12/04 11:52:10;;;;;;;18.07;11.37;;;6.20;99.90;;;;;;4941705;29;20178;-85
2022/12/04 11:55:08;;;;;;;20.17;12.40;;;6.20;99.90;;;;;;4941596;29;20202;-84
2022/12/04 11:57:53;;;;;;;20.00;12.20;;;6.20;99.90;;;;;;4939958;29;20164;-84
2022/12/04 12:00:22;;;;;;;18.07;12.10;;;6.30;99.90;;;;;;4915538;29;20235;-84
2022/12/04 12:02:48;;;;;;;15.57;10.87;;;6.30;99.90;;;;;;4908894;29;20204;-82
2022/12/04 12:05:36;;;;;;;15.10;10.73;;;6.20;99.90;;;;;;4905702;29;20178;-85
2022/12/04 12:08:42;;;;;;;17.77;11.30;;;6.20;99.90;;;;;;4902247;29;20162;-85
2022/12/04 12:11:22;;;;;;;19.27;11.30;;;6.20;99.90;;;;;;4880549;29;20225;-83
2022/12/04 12:14:24;;;;;;;19.37;10.80;;;6.20;99.90;;;;;;4901596;29;20178;-83
2022/12/04 12:17:03;;;;;;;19.17;11.93;;;6.30;99.90;;;;;;4901342;29;20178;-84
2022/12/04 12:19:44;;;;;;;18.13;11.33;;;6.20;99.90;;;;;;4899805;29;20187;-82
2022/12/04 12:22:10;;;;;;;19.40;12.10;;;6.20;99.90;;;;;;4899599;29;20543;-84
2022/12/04 12:24:55;;;;;;;23.27;12.20;;;6.20;99.90;;;;;;4901175;29;20181;-82
2022/12/04 12:27:55;;;;;;;19.77;12.67;;;6.20;99.90;;;;;;4901193;29;20181;-82
2022/12/04 12:30:23;;;;;;;19.27;11.70;;;6.20;99.90;;;;;;4865638;29;20195;-84
2022/12/04 12:33:08;;;;;;;19.17;11.57;;;6.20;99.90;;;;;;4900848;29;20218;-84
2022/12/04 12:36:02;;;;;;;17.33;11.37;;;6.10;99.90;;;;;;4901111;29;20685;-84
2022/12/04 12:38:40;;;;;;;21.33;12.83;;;6.10;99.90;;;;;;4901016;29;20181;-84
2022/12/04 12:41:23;;;;;;;19.20;13.27;;;6.20;99.90;;;;;;4901213;29;20170;-83
2022/12/04 12:44:03;;;;;;;20.13;11.97;;;6.20;99.90;;;;;;4899398;29;20188;-82
2022/12/04 12:46:42;;;;;;;18.87;12.87;;;6.20;99.90;;;;;;4904819;29;20205;-83
2022/12/04 12:49:23;;;;;;;18.97;11.57;;;6.20;99.90;;;;;;4902568;29;20169;-85
2022/12/04 12:52:24;;;;;;;20.93;12.27;;;6.10;99.90;;;;;;4901290;29;20202;-83
2022/12/04 12:55:01;;;;;;;17.07;12.30;;;6.20;99.90;;;;;;4901284;29;20194;-82
2022/12/04 12:57:36;;;;;;;17.40;11.60;;;6.20;99.90;;;;;;4899537;29;20619;-82
2022/12/04 13:00:21;;;;;;;20.27;12.47;;;6.10;99.90;;;;;;4908090;29;20282;-85
2022/12/04 13:02:58;;;;;;;17.60;11.23;;;6.10;99.90;;;;;;4937825;29;20256;-85
2022/12/04 13:05:29;;;;;;;16.90;10.83;;;6.10;99.90;;;;;;4938374;29;20161;-83
2022/12/04 13:08:21;;;;;;;18.47;11.87;;;6.10;99.90;;;;;;4939134;29;20168;-84
2022/12/04 13:11:03;;;;;;;17.13;11.23;;;6.10;99.90;;;;;;4941202;29;20197;-83
2022/12/04 13:13:34;;;;;;;17.73;10.57;;;6.10;99.90;;;;;;4938683;29;20204;-85
2022/12/04 13:16:05;;;;;;;15.60;10.33;;;6.20;99.90;;;;;;4938084;29;20298;-84
2022/12/04 13:18:58;;;;;;;15.27;10.07;;;6.20;99.90;;;;;;4937825;29;20192;-86
2022/12/04 13:21:32;;;;;;;14.90;10.43;;;6.10;99.90;;;;;;4930114;29;20224;-83